Time;durP1;ratioP1;P1;durP2;ratioP2;P2;SDS_P1;SDS_P2;PMS_P1;PMS_P2;Temp;Humidity;BMP_temperature;BMP_pressure;BME280_temperature;BME280_humidity;BME280_pressure;Samples;Min_cycle;Max_cycle;Signal;HPM_P1;HPM_P2
2022/08/05 00:01:17;;;;;;;4.18;3.00;;;24.40;92.60;;;;;;4994632;28;20069;-75
2022/08/05 00:03:43;;;;;;;3.85;2.72;;;24.40;92.50;;;;;;4994596;28;20022;-75
2022/08/05 00:06:09;;;;;;;4.70;3.00;;;24.50;92.30;;;;;;4994528;28;20026;-75
2022/08/05 00:08:35;;;;;;;5.25;2.88;;;24.40;93.00;;;;;;4976867;28;20053;-75
2022/08/05 00:11:03;;;;;;;6.70;3.13;;;24.10;93.20;;;;;;4994242;28;20105;-75
2022/08/05 00:13:31;;;;;;;3.65;3.35;;;24.00;93.60;;;;;;4994238;28;20117;-75
2022/08/05 00:15:57;;;;;;;3.30;3.00;;;24.00;94.10;;;;;;4976928;28;20082;-75
2022/08/05 00:18:22;;;;;;;3.05;2.75;;;23.70;94.30;;;;;;4976907;28;20527;-76
2022/08/05 00:20:48;;;;;;;3.72;3.42;;;23.90;94.30;;;;;;4987076;28;20027;-75
2022/08/05 00:23:14;;;;;;;5.00;3.10;;;23.80;94.90;;;;;;4993892;28;20032;-76
2022/08/05 00:25:40;;;;;;;3.25;2.95;;;23.70;95.20;;;;;;4994078;28;20447;-76
2022/08/05 00:28:05;;;;;;;4.40;2.60;;;23.60;95.20;;;;;;4982548;28;20495;-76
2022/08/05 00:30:31;;;;;;;4.10;3.13;;;23.90;95.00;;;;;;4976551;28;20439;-76
2022/08/05 00:32:56;;;;;;;3.65;3.30;;;23.90;94.40;;;;;;4993986;28;20456;-76
2022/08/05 00:35:22;;;;;;;3.05;2.80;;;24.10;94.30;;;;;;4993803;28;20451;-77
2022/08/05 00:37:47;;;;;;;3.15;2.80;;;24.20;93.70;;;;;;4975818;28;20026;-76
2022/08/05 00:40:13;;;;;;;4.63;2.88;;;24.30;93.80;;;;;;4993655;28;20490;-76
2022/08/05 00:42:39;;;;;;;3.08;2.78;;;24.30;93.80;;;;;;4993775;28;20026;-76
2022/08/05 00:45:07;;;;;;;4.07;3.03;;;24.30;93.70;;;;;;4976617;28;20030;-77
2022/08/05 00:47:32;;;;;;;3.33;3.03;;;24.40;93.80;;;;;;4976141;28;20026;-77
2022/08/05 00:49:58;;;;;;;3.20;2.90;;;24.40;93.70;;;;;;4994215;28;20030;-77
2022/08/05 00:52:24;;;;;;;4.18;2.90;;;24.50;93.30;;;;;;4993239;28;20030;-76
2022/08/05 00:54:49;;;;;;;3.42;2.90;;;24.50;93.30;;;;;;4976135;28;20026;-76
2022/08/05 00:57:15;;;;;;;3.13;2.88;;;24.70;93.20;;;;;;4993551;28;20034;-75
2022/08/05 00:59:40;;;;;;;3.53;2.95;;;24.70;93.20;;;;;;4976156;28;20029;-76
2022/08/05 01:02:06;;;;;;;5.53;2.95;;;24.80;93.20;;;;;;4982200;28;20483;-76
2022/08/05 01:04:32;;;;;;;3.85;2.97;;;24.80;93.60;;;;;;4994317;28;20026;-77
2022/08/05 01:06:57;;;;;;;3.10;2.80;;;24.80;93.50;;;;;;4995185;28;20026;-77
2022/08/05 01:09:23;;;;;;;4.80;3.00;;;24.90;93.30;;;;;;4995626;28;20093;-77
2022/08/05 01:11:52;;;;;;;4.78;3.20;;;24.80;93.20;;;;;;4994799;28;20077;-77
2022/08/05 01:14:28;;;;;;;4.25;2.95;;;25.00;93.60;;;;;;4995056;28;20015;-77
2022/08/05 01:17:13;;;;;;;4.18;3.13;;;25.00;93.40;;;;;;4993360;28;20029;-75
2022/08/05 01:19:59;;;;;;;4.05;3.00;;;24.90;93.90;;;;;;4993108;28;20030;-75
2022/08/05 01:22:57;;;;;;;3.10;2.90;;;24.70;94.10;;;;;;4993039;28;20037;-74
2022/08/05 01:25:57;;;;;;;3.20;2.90;;;24.40;94.60;;;;;;4992992;28;20500;-76
2022/08/05 01:28:52;;;;;;;4.82;2.70;;;24.40;94.70;;;;;;4980458;28;20061;-76
2022/08/05 01:31:34;;;;;;;3.33;3.00;;;24.50;94.80;;;;;;4992788;28;20262;-76
2022/08/05 01:34:14;;;;;;;9.40;3.20;;;24.40;94.60;;;;;;4975802;28;20033;-77
2022/08/05 01:36:47;;;;;;;3.92;3.13;;;24.40;95.10;;;;;;4979905;28;20038;-76
2022/08/05 01:39:14;;;;;;;3.63;3.28;;;24.30;95.00;;;;;;4992890;28;20022;-75
2022/08/05 01:41:42;;;;;;;3.38;3.00;;;24.50;94.80;;;;;;4992550;28;20030;-73
2022/08/05 01:44:08;;;;;;;3.33;2.95;;;24.60;94.40;;;;;;4993012;28;20449;-74
2022/08/05 01:46:35;;;;;;;3.70;2.95;;;24.70;94.60;;;;;;4992764;28;20030;-77
2022/08/05 01:49:03;;;;;;;3.67;3.08;;;24.50;94.70;;;;;;4975514;28;20022;-77
2022/08/05 01:51:32;;;;;;;5.15;3.08;;;24.40;94.70;;;;;;4992818;28;20037;-74
2022/08/05 01:53:59;;;;;;;4.40;3.30;;;24.20;94.90;;;;;;4975099;28;20076;-77
2022/08/05 01:56:29;;;;;;;5.55;3.00;;;24.20;95.00;;;;;;4979448;28;20472;-78
2022/08/05 01:58:57;;;;;;;5.07;3.17;;;24.20;94.80;;;;;;4979829;28;20019;-78
2022/08/05 02:01:26;;;;;;;4.07;3.30;;;24.30;94.60;;;;;;4996566;28;20018;-76
2022/08/05 02:03:54;;;;;;;4.93;3.30;;;24.30;94.70;;;;;;4994543;28;20065;-77
2022/08/05 02:06:20;;;;;;;3.92;2.65;;;24.40;94.90;;;;;;4974886;28;20507;-76
2022/08/05 02:08:46;;;;;;;3.92;2.90;;;24.30;95.30;;;;;;4992369;28;20023;-77
2022/08/05 02:11:14;;;;;;;4.03;2.65;;;24.20;95.80;;;;;;4992112;28;20037;-77
2022/08/05 02:13:51;;;;;;;4.53;3.20;;;24.10;96.10;;;;;;4992265;28;20022;-76
2022/08/05 02:16:38;;;;;;;3.88;3.47;;;24.00;95.60;;;;;;4974912;28;20026;-76
2022/08/05 02:19:27;;;;;;;3.80;3.50;;;23.90;94.90;;;;;;4992969;28;20068;-78
2022/08/05 02:22:11;;;;;;;4.88;3.40;;;23.90;94.70;;;;;;4997711;28;20090;-77
2022/08/05 02:24:39;;;;;;;4.13;3.72;;;23.90;94.70;;;;;;4974869;28;20030;-76
2022/08/05 02:27:09;;;;;;;4.60;3.25;;;23.80;95.00;;;;;;4992091;28;20093;-76
2022/08/05 02:29:36;;;;;;;6.45;3.40;;;23.80;95.30;;;;;;4974662;28;20033;-76
2022/08/05 02:32:03;;;;;;;4.20;3.40;;;23.70;95.40;;;;;;4991851;28;20502;-74
2022/08/05 02:34:31;;;;;;;5.32;3.78;;;23.70;95.40;;;;;;4974746;28;20026;-77
2022/08/05 02:37:01;;;;;;;3.70;3.28;;;23.70;95.50;;;;;;4975108;28;20035;-76
2022/08/05 02:39:33;;;;;;;3.95;3.65;;;23.70;95.80;;;;;;4995819;28;20113;-77
2022/08/05 02:41:59;;;;;;;3.85;3.38;;;23.70;95.80;;;;;;4985114;28;20026;-77
2022/08/05 02:44:26;;;;;;;3.47;3.17;;;23.60;96.00;;;;;;4992490;28;20037;-77
2022/08/05 02:46:54;;;;;;;4.63;3.45;;;23.50;96.20;;;;;;4992346;28;20034;-77
2022/08/05 02:49:20;;;;;;;4.93;3.38;;;23.70;96.10;;;;;;4993010;28;20133;-76
2022/08/05 02:51:47;;;;;;;5.75;3.53;;;23.70;96.30;;;;;;4991686;28;20157;-75
2022/08/05 02:54:13;;;;;;;3.50;3.17;;;23.60;96.40;;;;;;4991968;28;20046;-75
2022/08/05 02:56:41;;;;;;;3.58;3.22;;;23.50;96.50;;;;;;4991899;28;20105;-76
2022/08/05 02:59:09;;;;;;;3.85;3.10;;;23.70;96.50;;;;;;4991873;28;20077;-75
2022/08/05 03:01:39;;;;;;;7.53;3.78;;;23.80;96.90;;;;;;4992643;28;20385;-76
2022/08/05 03:04:07;;;;;;;3.63;3.33;;;23.20;97.30;;;;;;4995603;28;20023;-75
2022/08/05 03:06:34;;;;;;;3.65;3.22;;;23.00;97.10;;;;;;4995677;28;20026;-75
2022/08/05 03:09:00;;;;;;;6.32;3.55;;;22.80;98.60;;;;;;4995735;28;20034;-77
2022/08/05 03:11:26;;;;;;;6.53;4.25;;;22.60;98.80;;;;;;4995293;28;20077;-76
2022/08/05 03:13:52;;;;;;;4.68;4.20;;;22.30;99.90;;;;;;4995559;28;20102;-75
2022/08/05 03:16:19;;;;;;;6.13;4.53;;;22.20;99.90;;;;;;4995424;28;20027;-76
2022/08/05 03:18:45;;;;;;;4.78;4.25;;;22.50;99.90;;;;;;4980426;28;20404;-76
2022/08/05 03:21:11;;;;;;;7.97;5.10;;;22.30;99.90;;;;;;5007525;28;20034;-75
2022/08/05 03:23:39;;;;;;;5.07;4.18;;;22.00;99.90;;;;;;5014895;28;20036;-76
2022/08/05 03:26:05;;;;;;;5.32;4.47;;;22.00;99.90;;;;;;5014866;28;20034;-76
2022/08/05 03:28:32;;;;;;;6.97;4.60;;;22.30;99.90;;;;;;5014735;28;20040;-75
2022/08/05 03:31:00;;;;;;;5.28;4.72;;;22.20;99.90;;;;;;5014448;28;20083;-75
2022/08/05 03:33:29;;;;;;;4.97;4.50;;;22.20;99.90;;;;;;5015504;28;20034;-78
2022/08/05 03:35:56;;;;;;;5.13;4.47;;;22.20;99.90;;;;;;5001800;28;20026;-77
2022/08/05 03:38:23;;;;;;;5.15;4.63;;;22.30;99.90;;;;;;4995257;28;20022;-76
2022/08/05 03:40:49;;;;;;;5.00;4.50;;;22.50;99.90;;;;;;4978936;28;20400;-77
2022/08/05 03:43:16;;;;;;;5.20;4.35;;;22.50;99.90;;;;;;4994897;28;20034;-76
2022/08/05 03:45:42;;;;;;;7.85;4.38;;;22.60;99.90;;;;;;4977412;28;20033;-76
2022/08/05 03:48:08;;;;;;;6.35;4.72;;;22.70;99.90;;;;;;4977668;28;20034;-77
2022/08/05 03:50:42;;;;;;;5.43;4.35;;;22.40;99.90;;;;;;4994851;28;20023;-77
2022/08/05 03:53:12;;;;;;;5.07;4.57;;;22.30;99.90;;;;;;4995045;28;20034;-74
2022/08/05 03:55:44;;;;;;;5.38;4.18;;;22.50;99.90;;;;;;4977166;28;20019;-76
2022/08/05 03:58:15;;;;;;;4.47;4.07;;;22.40;99.90;;;;;;4995161;28;20080;-76
2022/08/05 04:00:42;;;;;;;6.25;4.63;;;22.40;99.90;;;;;;4994562;28;20050;-75
2022/08/05 04:03:10;;;;;;;6.20;4.80;;;22.20;99.90;;;;;;4994864;28;20030;-76
2022/08/05 04:05:38;;;;;;;5.40;4.57;;;22.00;99.90;;;;;;4977128;28;20033;-77
2022/08/05 04:08:06;;;;;;;6.30;4.97;;;21.70;99.90;;;;;;4994411;28;20037;-75
2022/08/05 04:10:33;;;;;;;5.97;4.45;;;21.60;99.90;;;;;;4976990;28;20026;-76
2022/08/05 04:12:59;;;;;;;5.30;4.90;;;21.20;99.90;;;;;;4975704;28;20479;-75
2022/08/05 04:15:26;;;;;;;5.25;4.75;;;21.60;99.90;;;;;;4976904;28;20117;-76
2022/08/05 04:17:53;;;;;;;4.97;4.47;;;21.60;99.90;;;;;;4994463;28;20022;-77
2022/08/05 04:20:21;;;;;;;5.82;4.53;;;21.70;99.90;;;;;;5001090;28;20428;-75
2022/08/05 04:22:46;;;;;;;6.18;4.40;;;21.70;99.90;;;;;;4999981;28;20023;-75
2022/08/05 04:25:12;;;;;;;5.50;4.78;;;21.80;99.90;;;;;;4992541;28;21326;-77
2022/08/05 04:27:38;;;;;;;6.88;4.10;;;21.80;99.90;;;;;;4992246;28;20447;-77
2022/08/05 04:30:05;;;;;;;5.82;4.45;;;22.20;99.90;;;;;;4987890;28;20061;-76
2022/08/05 04:32:30;;;;;;;6.10;4.30;;;22.40;99.90;;;;;;5007087;28;20022;-76
2022/08/05 04:34:56;;;;;;;4.68;4.25;;;22.50;99.90;;;;;;4990298;28;20169;-75
2022/08/05 04:37:21;;;;;;;5.10;4.15;;;22.50;99.90;;;;;;5041068;23;20410;-77
2022/08/05 04:39:47;;;;;;;5.80;4.60;;;22.40;99.90;;;;;;5014453;28;20021;-76
2022/08/05 04:42:12;;;;;;;5.43;4.35;;;22.50;99.90;;;;;;5044625;28;20112;-76
2022/08/05 04:44:38;;;;;;;5.38;4.20;;;22.30;99.90;;;;;;5031848;28;20036;-76
2022/08/05 04:47:04;;;;;;;11.30;4.35;;;22.30;99.90;;;;;;5048082;28;20037;-75
2022/08/05 04:49:30;;;;;;;6.32;4.43;;;22.40;99.90;;;;;;5052716;28;20025;-75
2022/08/05 04:51:55;;;;;;;9.15;4.60;;;22.30;99.90;;;;;;5053723;28;20124;-75
2022/08/05 04:54:21;;;;;;;5.25;4.18;;;22.20;99.90;;;;;;5052638;28;20052;-75
2022/08/05 04:56:47;;;;;;;6.43;4.32;;;22.10;99.90;;;;;;5052876;28;20018;-76
2022/08/05 04:59:14;;;;;;;7.85;4.03;;;22.30;99.90;;;;;;5050234;28;20018;-76
2022/08/05 05:01:40;;;;;;;4.70;4.30;;;22.40;99.90;;;;;;5050318;28;20021;-76
2022/08/05 05:04:06;;;;;;;5.90;4.32;;;22.50;99.90;;;;;;5051409;28;20029;-78
2022/08/05 05:06:32;;;;;;;6.90;4.53;;;22.50;99.90;;;;;;5047701;28;20036;-77
2022/08/05 05:08:57;;;;;;;4.78;4.25;;;22.40;99.90;;;;;;5046756;28;20021;-79
2022/08/05 05:11:23;;;;;;;7.45;4.47;;;22.50;99.90;;;;;;5047061;28;20022;-79
2022/08/05 05:13:48;;;;;;;6.43;4.20;;;22.60;99.90;;;;;;5045501;28;20029;-79
2022/08/05 05:16:14;;;;;;;6.28;4.28;;;22.80;99.90;;;;;;5046189;28;20040;-79
2022/08/05 05:18:42;;;;;;;5.40;4.30;;;22.50;99.90;;;;;;5047710;28;20028;-79
2022/08/05 05:21:07;;;;;;;4.72;4.25;;;22.40;99.90;;;;;;5046177;28;20117;-79
2022/08/05 05:23:33;;;;;;;8.00;4.68;;;22.30;99.90;;;;;;5032452;28;20029;-79
2022/08/05 05:25:59;;;;;;;6.50;4.43;;;22.40;99.90;;;;;;5045658;28;20021;-78
2022/08/05 05:28:24;;;;;;;5.07;4.32;;;22.60;99.90;;;;;;5045966;28;20029;-79
2022/08/05 05:30:50;;;;;;;6.95;4.07;;;22.90;99.90;;;;;;5046006;28;20036;-79
2022/08/05 05:33:16;;;;;;;5.45;4.13;;;22.90;99.90;;;;;;5044474;28;20033;-80
2022/08/05 05:35:46;;;;;;;8.20;4.40;;;22.80;99.90;;;;;;5030987;28;20040;-80
2022/08/05 05:38:12;;;;;;;4.90;3.70;;;23.00;99.90;;;;;;5048315;28;20060;-79
2022/08/05 05:40:37;;;;;;;5.18;4.30;;;22.90;99.90;;;;;;5045341;28;20051;-79
2022/08/05 05:43:03;;;;;;;7.00;4.13;;;22.80;99.90;;;;;;5032964;28;20072;-78
2022/08/05 05:45:29;;;;;;;5.43;4.10;;;22.80;99.90;;;;;;5041264;28;20108;-76
2022/08/05 05:47:57;;;;;;;8.10;4.47;;;22.90;99.90;;;;;;5041093;28;20081;-78
2022/08/05 05:50:22;;;;;;;6.25;4.22;;;22.90;99.90;;;;;;5039431;28;20022;-78
2022/08/05 05:52:48;;;;;;;6.53;3.97;;;22.90;99.90;;;;;;5041304;28;20037;-79
2022/08/05 05:55:16;;;;;;;8.50;4.40;;;22.90;99.90;;;;;;5022890;28;20042;-78
2022/08/05 05:57:43;;;;;;;8.15;4.80;;;22.90;99.90;;;;;;5015607;28;20022;-79
2022/08/05 06:00:12;;;;;;;4.30;3.90;;;22.90;99.90;;;;;;5025699;28;20026;-76
2022/08/05 06:02:39;;;;;;;6.13;4.40;;;22.90;99.90;;;;;;5044513;28;20040;-79
2022/08/05 06:05:09;;;;;;;6.53;3.95;;;23.10;99.90;;;;;;5029076;28;20391;-78
2022/08/05 06:07:35;;;;;;;7.30;4.20;;;23.00;99.90;;;;;;5032853;28;20026;-78
2022/08/05 06:10:01;;;;;;;6.15;4.35;;;23.20;99.90;;;;;;5034976;28;20661;-79
2022/08/05 06:12:26;;;;;;;9.13;4.22;;;23.20;99.90;;;;;;5041614;28;20087;-79
2022/08/05 06:14:52;;;;;;;7.22;4.20;;;23.10;99.90;;;;;;5032837;28;20037;-77
2022/08/05 06:17:18;;;;;;;6.38;4.20;;;22.90;99.90;;;;;;5032017;28;20033;-77
2022/08/05 06:19:43;;;;;;;7.65;4.10;;;22.80;99.90;;;;;;5019060;28;20025;-77
2022/08/05 06:22:09;;;;;;;7.40;4.22;;;23.00;99.90;;;;;;5032210;28;20030;-77
2022/08/05 06:24:40;;;;;;;8.82;4.50;;;23.10;99.90;;;;;;5032737;28;20483;-77
2022/08/05 06:27:05;;;;;;;5.60;4.18;;;23.00;99.90;;;;;;5032221;28;20033;-77
2022/08/05 06:29:31;;;;;;;5.57;4.10;;;23.00;99.90;;;;;;5032661;28;20028;-77
2022/08/05 06:31:56;;;;;;;7.40;3.70;;;23.00;99.90;;;;;;5032523;28;20435;-77
2022/08/05 06:34:22;;;;;;;5.13;3.67;;;23.10;99.90;;;;;;5018704;28;20026;-77
2022/08/05 06:36:48;;;;;;;4.13;3.55;;;23.10;99.90;;;;;;5021709;28;20033;-77
2022/08/05 06:39:13;;;;;;;6.47;4.10;;;23.30;99.90;;;;;;5034903;28;20548;-76
2022/08/05 06:41:39;;;;;;;6.60;3.90;;;23.50;99.90;;;;;;5028195;28;20029;-76
2022/08/05 06:44:05;;;;;;;6.70;3.80;;;23.30;99.90;;;;;;5028632;28;20021;-77
2022/08/05 06:46:30;;;;;;;8.07;4.05;;;23.40;99.90;;;;;;5034993;28;20075;-77
2022/08/05 06:48:56;;;;;;;6.28;4.25;;;23.50;99.90;;;;;;5033472;28;20087;-76
2022/08/05 06:51:22;;;;;;;7.68;3.85;;;24.00;99.90;;;;;;5021482;28;20053;-76
2022/08/05 06:53:47;;;;;;;8.02;4.07;;;24.00;99.90;;;;;;5036980;28;20048;-77
2022/08/05 06:56:13;;;;;;;9.85;4.07;;;24.20;99.90;;;;;;5041771;28;20431;-78
2022/08/05 06:58:38;;;;;;;10.68;3.85;;;24.50;99.90;;;;;;5028081;28;20030;-77
2022/08/05 07:01:05;;;;;;;10.70;3.95;;;24.50;99.90;;;;;;5014899;28;20140;-77
2022/08/05 07:03:31;;;;;;;10.63;4.35;;;24.60;99.90;;;;;;5028263;28;20144;-77
2022/08/05 07:05:57;;;;;;;8.60;4.38;;;24.70;99.90;;;;;;5015775;28;20390;-77
2022/08/05 07:08:23;;;;;;;12.15;4.10;;;24.70;99.90;;;;;;5040590;28;20438;-77
2022/08/05 07:10:50;;;;;;;6.10;4.15;;;24.90;99.90;;;;;;5041387;28;20037;-76
2022/08/05 07:18:44;;;;;;;6.30;3.75;;;25.10;99.90;;;;;;5035422;28;20067;-77
2022/08/05 07:21:09;;;;;;;6.05;3.63;;;25.50;99.90;;;;;;5035056;28;20053;-77
2022/08/05 07:23:36;;;;;;;6.93;3.80;;;25.80;99.90;;;;;;5029957;28;20029;-77
2022/08/05 07:26:02;;;;;;;9.38;3.42;;;26.00;99.90;;;;;;5014164;28;20054;-76
2022/08/05 07:28:28;;;;;;;5.00;3.40;;;26.00;99.90;;;;;;5015171;28;20072;-77
2022/08/05 07:30:53;;;;;;;5.05;3.08;;;26.10;99.90;;;;;;5015077;28;20054;-78
2022/08/05 07:33:21;;;;;;;4.63;3.15;;;26.40;99.90;;;;;;5015035;28;20073;-75
2022/08/05 07:35:47;;;;;;;5.22;2.85;;;26.20;99.90;;;;;;5015861;28;20096;-77
2022/08/05 07:38:14;;;;;;;5.70;2.90;;;26.20;99.90;;;;;;5022355;28;20053;-78
2022/08/05 07:40:40;;;;;;;3.92;2.92;;;26.20;99.90;;;;;;5034772;28;20017;-75
2022/08/05 07:43:05;;;;;;;6.75;3.10;;;26.30;99.90;;;;;;5027477;28;20116;-77
2022/08/05 07:45:31;;;;;;;5.60;3.20;;;26.20;99.90;;;;;;5026991;28;20061;-77
2022/08/05 07:47:57;;;;;;;5.43;2.88;;;26.40;99.90;;;;;;5021374;28;20083;-76
2022/08/05 07:50:23;;;;;;;6.25;2.85;;;26.30;99.90;;;;;;5034293;28;20033;-76
2022/08/05 07:52:48;;;;;;;7.55;2.58;;;26.50;99.90;;;;;;5032955;28;20037;-76
2022/08/05 07:55:14;;;;;;;4.43;2.95;;;26.80;99.90;;;;;;5027632;28;20040;-76
2022/08/05 07:57:39;;;;;;;5.00;3.05;;;26.80;99.90;;;;;;5028096;28;20026;-76
2022/08/05 08:00:06;;;;;;;3.25;2.50;;;26.70;99.90;;;;;;5025775;28;20021;-76
2022/08/05 08:02:31;;;;;;;3.97;2.90;;;26.50;99.90;;;;;;5033992;28;20431;-77
2022/08/05 08:04:57;;;;;;;4.68;2.80;;;26.30;99.90;;;;;;5033006;28;20087;-77
2022/08/05 08:07:23;;;;;;;4.75;3.10;;;26.20;99.90;;;;;;5013756;28;20057;-77
2022/08/05 08:09:50;;;;;;;4.18;2.92;;;26.30;99.90;;;;;;5026527;28;20096;-76
2022/08/05 08:12:16;;;;;;;3.80;2.88;;;26.70;99.90;;;;;;5014581;28;20482;-76
2022/08/05 08:14:42;;;;;;;4.47;2.78;;;26.50;99.90;;;;;;5026603;28;20021;-77
2022/08/05 08:17:09;;;;;;;4.47;2.67;;;26.90;99.90;;;;;;5020495;28;20163;-76
2022/08/05 08:19:45;;;;;;;3.00;2.80;;;27.20;99.90;;;;;;5032573;28;20022;-76
2022/08/05 08:22:11;;;;;;;8.25;3.45;;;27.30;99.90;;;;;;5006936;28;20498;-77
2022/08/05 08:24:37;;;;;;;6.82;2.78;;;27.30;99.90;;;;;;5033806;28;20033;-79
2022/08/05 08:27:03;;;;;;;6.38;2.70;;;27.30;99.90;;;;;;5035804;28;20107;-78
2022/08/05 08:29:29;;;;;;;4.50;2.60;;;27.20;99.90;;;;;;5033887;28;20029;-77
2022/08/05 08:31:54;;;;;;;3.83;2.65;;;27.40;99.90;;;;;;5020989;28;20032;-77
2022/08/05 08:34:23;;;;;;;4.65;2.67;;;27.50;99.90;;;;;;5033755;28;20439;-78
2022/08/05 08:36:49;;;;;;;4.90;2.75;;;27.80;99.90;;;;;;5021688;28;20026;-77
2022/08/05 08:39:18;;;;;;;4.30;2.88;;;27.70;99.90;;;;;;5033619;28;20044;-77
2022/08/05 08:41:47;;;;;;;3.63;2.60;;;27.60;99.90;;;;;;5033340;28;20487;-76
2022/08/05 08:44:18;;;;;;;3.60;2.50;;;27.60;99.90;;;;;;5032416;28;20100;-77
2022/08/05 08:46:46;;;;;;;6.28;2.78;;;27.80;99.90;;;;;;5033538;28;20064;-77
2022/08/05 08:49:17;;;;;;;5.28;2.35;;;27.90;99.90;;;;;;5022348;28;20058;-78
2022/08/05 08:51:48;;;;;;;4.18;2.50;;;28.10;99.90;;;;;;5031455;28;20479;-79
2022/08/05 08:54:14;;;;;;;2.97;2.45;;;27.80;99.90;;;;;;5029069;28;20025;-77
2022/08/05 08:56:40;;;;;;;4.00;2.50;;;28.20;99.10;;;;;;5030846;28;20018;-78
2022/08/05 08:59:06;;;;;;;7.47;2.72;;;28.30;98.60;;;;;;5032878;28;20097;-78
2022/08/05 09:01:32;;;;;;;4.25;2.35;;;28.40;98.40;;;;;;5037716;28;20030;-78
2022/08/05 09:03:59;;;;;;;3.65;2.20;;;28.50;98.60;;;;;;5023034;28;20029;-78
2022/08/05 09:06:27;;;;;;;3.72;2.53;;;28.90;98.40;;;;;;5028769;28;20017;-77
2022/08/05 09:08:52;;;;;;;3.03;2.28;;;28.80;97.90;;;;;;5033071;28;20025;-77
2022/08/05 09:11:18;;;;;;;4.35;2.60;;;28.90;96.70;;;;;;5031588;28;20083;-78
2022/08/05 09:13:44;;;;;;;2.25;2.00;;;28.60;97.70;;;;;;5032832;28;20029;-77
2022/08/05 09:16:11;;;;;;;3.55;1.98;;;28.70;96.60;;;;;;5024723;28;20624;-77
2022/08/05 09:18:37;;;;;;;2.60;1.90;;;29.00;95.80;;;;;;5032748;28;20108;-77
2022/08/05 09:21:03;;;;;;;3.42;1.90;;;29.00;95.70;;;;;;5030129;28;20117;-78
2022/08/05 09:23:28;;;;;;;4.22;2.00;;;28.60;95.40;;;;;;5031669;28;20427;-78
2022/08/05 09:26:10;;;;;;;2.22;1.90;;;28.50;94.90;;;;;;5032659;28;20055;-77
2022/08/05 09:28:39;;;;;;;2.97;1.80;;;29.00;95.10;;;;;;5023673;28;20026;-77
2022/08/05 09:31:10;;;;;;;2.20;1.73;;;29.80;94.20;;;;;;5017819;28;20121;-77
2022/08/05 09:33:49;;;;;;;4.00;1.83;;;29.90;94.20;;;;;;5008417;28;20388;-78
2022/08/05 09:36:15;;;;;;;2.58;1.90;;;30.00;93.90;;;;;;5008263;28;20072;-78
2022/08/05 09:39:04;;;;;;;2.75;1.70;;;30.30;93.30;;;;;;5032563;28;20033;-78
2022/08/05 09:41:29;;;;;;;3.15;1.77;;;30.00;93.80;;;;;;5032951;28;20086;-78
2022/08/05 09:43:55;;;;;;;3.65;1.90;;;30.00;93.20;;;;;;5033297;28;20747;-77
2022/08/05 09:46:32;;;;;;;3.25;1.70;;;30.20;93.00;;;;;;5033079;28;20029;-77
2022/08/05 09:49:00;;;;;;;5.00;2.00;;;30.30;92.50;;;;;;5033161;28;20030;-76
2022/08/05 09:51:34;;;;;;;4.13;1.90;;;30.20;92.80;;;;;;5032759;28;20089;-77
2022/08/05 09:54:03;;;;;;;2.53;1.80;;;29.70;92.30;;;;;;5033052;28;20061;-77
2022/08/05 09:56:34;;;;;;;3.08;1.80;;;29.50;92.40;;;;;;5032720;28;20022;-78
2022/08/05 09:59:02;;;;;;;2.53;1.80;;;29.30;91.60;;;;;;5032582;28;20443;-77
2022/08/05 10:01:32;;;;;;;2.15;1.60;;;29.10;91.90;;;;;;5023164;28;20484;-77
2022/08/05 10:04:02;;;;;;;2.25;1.80;;;28.90;91.80;;;;;;5016152;28;20025;-77
2022/08/05 10:06:27;;;;;;;1.92;1.73;;;29.30;91.90;;;;;;5033427;28;20095;-77
2022/08/05 10:08:54;;;;;;;3.00;1.80;;;30.10;91.30;;;;;;5033125;28;20665;-77
2022/08/05 10:11:20;;;;;;;3.42;1.90;;;30.40;91.60;;;;;;5032301;28;20495;-77
2022/08/05 10:13:46;;;;;;;3.63;1.95;;;29.60;91.80;;;;;;5032855;28;20076;-77
2022/08/05 10:16:47;;;;;;;3.90;2.00;;;29.00;91.80;;;;;;5033486;28;20025;-78
2022/08/05 10:19:15;;;;;;;2.83;1.73;;;29.30;92.40;;;;;;4956423;28;20037;-77
2022/08/05 10:21:41;;;;;;;3.78;2.20;;;29.00;92.20;;;;;;5024679;28;20037;-77
2022/08/05 10:24:13;;;;;;;3.50;1.90;;;29.50;92.50;;;;;;5024372;28;20050;-77
2022/08/05 10:26:41;;;;;;;4.18;2.28;;;29.60;92.30;;;;;;5031545;28;20064;-78
2022/08/05 10:29:08;;;;;;;2.00;1.80;;;29.60;92.20;;;;;;5032329;28;20021;-80
2022/08/05 10:31:35;;;;;;;4.70;2.13;;;29.40;92.40;;;;;;5021543;28;20029;-77
2022/08/05 10:34:01;;;;;;;3.88;2.08;;;29.50;92.50;;;;;;5031188;28;20075;-77
2022/08/05 10:36:27;;;;;;;6.63;1.90;;;30.00;92.70;;;;;;5028019;22;20033;-78
2022/08/05 10:39:00;;;;;;;3.45;2.05;;;30.10;92.20;;;;;;5011883;28;20049;-77
2022/08/05 10:41:38;;;;;;;4.72;2.20;;;29.60;92.40;;;;;;5023321;28;20026;-76
2022/08/05 10:44:06;;;;;;;5.35;2.10;;;29.80;92.50;;;;;;5026353;28;20018;-77
2022/08/05 10:46:53;;;;;;;3.42;2.05;;;30.00;92.80;;;;;;5012285;28;20018;-77
2022/08/05 10:49:19;;;;;;;4.30;2.45;;;30.20;92.10;;;;;;4994884;28;20026;-78
2022/08/05 10:51:50;;;;;;;4.07;1.90;;;30.40;92.30;;;;;;4992703;28;20019;-78
2022/08/05 10:54:16;;;;;;;2.03;1.83;;;30.30;92.00;;;;;;4990490;28;20405;-78
2022/08/05 10:56:47;;;;;;;4.00;2.00;;;30.10;92.50;;;;;;4993347;28;20018;-77
2022/08/05 10:59:18;;;;;;;2.92;1.90;;;30.30;92.30;;;;;;4993634;28;20493;-78
2022/08/05 11:01:44;;;;;;;5.68;2.20;;;30.40;92.30;;;;;;4993320;28;20039;-78
2022/08/05 11:04:16;;;;;;;2.65;2.20;;;30.50;91.90;;;;;;4995570;28;20018;-76
2022/08/05 11:06:57;;;;;;;3.55;2.15;;;30.20;91.90;;;;;;5006107;28;20030;-78
2022/08/05 11:09:24;;;;;;;2.20;1.92;;;31.00;91.60;;;;;;4995513;28;20030;-76
2022/08/05 11:11:51;;;;;;;3.63;2.08;;;31.20;91.80;;;;;;5003012;28;20034;-77
2022/08/05 11:14:26;;;;;;;4.22;2.17;;;31.10;91.70;;;;;;5002483;28;20022;-79
2022/08/05 11:17:25;;;;;;;2.55;2.30;;;30.40;91.40;;;;;;5011179;28;20022;-78
2022/08/05 11:19:53;;;;;;;5.13;1.92;;;30.20;91.70;;;;;;5011246;28;20479;-76
2022/08/05 11:22:46;;;;;;;2.92;1.95;;;30.30;91.90;;;;;;5011810;28;20590;-76
2022/08/05 11:25:31;;;;;;;9.35;2.45;;;30.40;91.80;;;;;;5013966;28;20026;-75
2022/08/05 11:28:16;;;;;;;2.65;2.33;;;30.30;93.20;;;;;;5008309;28;20076;-77
2022/08/05 11:30:54;;;;;;;2.33;2.13;;;30.00;92.60;;;;;;4994824;28;20053;-76
2022/08/05 11:33:47;;;;;;;2.50;2.30;;;30.60;92.70;;;;;;4996489;28;20026;-76
2022/08/05 11:36:17;;;;;;;2.63;2.20;;;30.90;91.90;;;;;;4989670;28;20535;-76
2022/08/05 11:38:43;;;;;;;2.65;2.40;;;31.00;91.50;;;;;;4994913;28;20030;-75
2022/08/05 11:41:23;;;;;;;2.78;2.20;;;31.20;91.30;;;;;;4996348;28;20026;-76
2022/08/05 11:44:05;;;;;;;3.63;2.28;;;32.10;91.30;;;;;;5006773;28;20033;-75
2022/08/05 11:46:34;;;;;;;5.13;2.33;;;32.50;91.60;;;;;;5013329;28;20030;-76
2022/08/05 11:49:00;;;;;;;7.25;2.35;;;32.30;91.40;;;;;;5014356;28;20030;-76
2022/08/05 11:51:27;;;;;;;5.35;2.10;;;31.80;91.00;;;;;;5013543;28;20036;-76
2022/08/05 11:53:54;;;;;;;3.45;2.20;;;32.20;91.20;;;;;;5014274;28;20128;-76
2022/08/05 11:56:20;;;;;;;3.90;2.45;;;32.50;90.80;;;;;;5011800;28;20032;-74
2022/08/05 11:58:48;;;;;;;2.72;2.47;;;32.40;90.50;;;;;;5003814;28;20026;-75
2022/08/05 12:01:15;;;;;;;2.38;2.17;;;31.80;90.70;;;;;;5003501;28;20076;-75
2022/08/05 12:03:50;;;;;;;2.95;2.30;;;32.10;91.00;;;;;;5013282;28;20030;-76
2022/08/05 12:06:18;;;;;;;2.80;2.28;;;32.40;90.50;;;;;;5004394;28;20030;-77
2022/08/05 12:08:52;;;;;;;4.78;2.15;;;32.90;89.60;;;;;;5011427;28;20038;-77
2022/08/05 12:11:26;;;;;;;2.78;2.00;;;32.50;88.30;;;;;;5014035;28;20480;-77
2022/08/05 12:13:54;;;;;;;3.05;2.08;;;32.10;88.10;;;;;;5013907;28;20030;-77
2022/08/05 12:16:20;;;;;;;3.45;2.30;;;32.40;88.70;;;;;;5014021;28;20029;-76
2022/08/05 12:18:46;;;;;;;6.32;2.22;;;32.50;88.30;;;;;;5014014;28;20025;-77
2022/08/05 12:21:18;;;;;;;3.97;2.30;;;32.30;89.40;;;;;;5012459;28;20026;-77
2022/08/05 12:24:04;;;;;;;3.60;2.15;;;32.70;88.40;;;;;;5002733;28;20447;-77
2022/08/05 12:26:34;;;;;;;3.30;2.17;;;32.30;88.60;;;;;;4994081;28;20028;-77
2022/08/05 12:29:00;;;;;;;8.50;2.60;;;32.70;89.40;;;;;;5004872;28;20034;-78
2022/08/05 12:31:26;;;;;;;4.45;2.30;;;33.00;88.20;;;;;;5013845;28;20026;-77
2022/08/05 12:33:53;;;;;;;2.35;2.05;;;32.90;88.20;;;;;;5013112;28;20076;-79
2022/08/05 12:36:20;;;;;;;2.35;2.15;;;33.20;87.30;;;;;;4998762;28;20067;-76
2022/08/05 12:38:46;;;;;;;3.17;2.00;;;33.20;87.20;;;;;;5001666;28;20052;-75
2022/08/05 12:41:13;;;;;;;2.83;2.08;;;33.20;86.30;;;;;;5007575;28;20026;-75
2022/08/05 12:43:54;;;;;;;6.15;2.22;;;33.30;86.80;;;;;;4993849;28;20108;-77
2022/08/05 12:46:22;;;;;;;3.92;2.30;;;33.50;86.10;;;;;;5007200;28;20035;-76
2022/08/05 12:48:59;;;;;;;2.35;2.05;;;32.80;87.30;;;;;;4995480;28;20023;-78
2022/08/05 12:51:26;;;;;;;2.88;2.30;;;33.20;86.20;;;;;;4983584;28;20037;-76
2022/08/05 12:53:58;;;;;;;3.80;2.65;;;33.40;86.30;;;;;;4996230;28;20038;-77
2022/08/05 12:56:24;;;;;;;4.03;2.70;;;33.80;87.00;;;;;;5013449;28;20053;-77
2022/08/05 12:59:09;;;;;;;3.65;2.20;;;33.90;87.10;;;;;;5013221;28;20022;-76